Time;durP1;ratioP1;P1;durP2;ratioP2;P2;SDS_P1;SDS_P2;PMS_P1;PMS_P2;Temp;Humidity;BMP_temperature;BMP_pressure;BME280_temperature;BME280_humidity;BME280_pressure;Samples;Min_cycle;Max_cycle;Signal;HPM_P1;HPM_P2
2023/09/22 00:00:15;;;;;;;6.63;4.32;;;17.20;99.90;;;;;;5049001;28;20029;-54
2023/09/22 00:02:42;;;;;;;9.10;4.57;;;17.20;99.90;;;;;;5047663;28;20017;-53
2023/09/22 00:05:12;;;;;;;5.78;4.43;;;17.20;99.90;;;;;;5050076;28;20020;-53
2023/09/22 00:07:37;;;;;;;4.40;3.67;;;17.10;99.90;;;;;;5047808;28;20044;-50
2023/09/22 00:10:04;;;;;;;5.53;3.72;;;17.10;99.90;;;;;;5053474;28;20517;-52
2023/09/22 00:12:31;;;;;;;8.48;3.28;;;17.00;99.90;;;;;;5050496;28;20048;-52
2023/09/22 00:14:58;;;;;;;5.20;4.20;;;17.00;99.90;;;;;;5054323;28;20126;-48
2023/09/22 00:17:24;;;;;;;5.47;4.03;;;17.00;99.90;;;;;;5048979;28;20032;-48
2023/09/22 00:19:49;;;;;;;6.63;4.25;;;16.90;99.90;;;;;;5053601;28;20477;-52
2023/09/22 00:22:15;;;;;;;9.70;4.38;;;16.90;99.90;;;;;;5055338;28;20078;-52
2023/09/22 00:24:41;;;;;;;8.75;4.15;;;16.90;99.90;;;;;;5046983;28;20400;-50
2023/09/22 00:27:06;;;;;;;4.10;3.70;;;16.80;99.90;;;;;;5051639;28;20040;-48
2023/09/22 00:29:32;;;;;;;5.57;3.90;;;16.80;99.90;;;;;;5054797;28;20025;-50
2023/09/22 00:31:57;;;;;;;3.50;3.17;;;16.80;99.90;;;;;;5052587;28;20056;-50
2023/09/22 00:34:23;;;;;;;3.95;3.28;;;16.70;99.90;;;;;;5054973;28;20021;-48
2023/09/22 00:36:52;;;;;;;6.75;4.00;;;16.70;99.90;;;;;;5049722;28;20120;-53
2023/09/22 00:39:18;;;;;;;5.32;3.90;;;16.70;99.90;;;;;;5048013;28;20029;-51
2023/09/22 00:41:43;;;;;;;6.15;3.58;;;16.70;99.90;;;;;;5046625;28;20055;-49
2023/09/22 00:44:09;;;;;;;7.47;4.20;;;16.60;99.90;;;;;;5052988;28;20021;-50
2023/09/22 00:46:35;;;;;;;5.85;3.95;;;16.60;99.90;;;;;;5056077;28;20020;-53
2023/09/22 00:49:01;;;;;;;8.00;4.43;;;16.60;99.90;;;;;;5046844;28;20477;-52
2023/09/22 00:51:27;;;;;;;4.53;3.90;;;16.60;99.90;;;;;;5056856;28;20157;-53
2023/09/22 00:53:53;;;;;;;4.47;3.75;;;16.60;99.90;;;;;;5052739;28;20032;-53
2023/09/22 00:56:20;;;;;;;5.07;3.72;;;16.60;99.90;;;;;;5055149;28;20025;-50
2023/09/22 00:58:47;;;;;;;6.32;3.97;;;16.50;99.90;;;;;;5053442;28;20078;-51
2023/09/22 01:01:13;;;;;;;5.72;4.00;;;16.50;99.90;;;;;;5054554;28;20148;-52
2023/09/22 01:03:38;;;;;;;5.13;3.55;;;16.50;99.90;;;;;;5052724;28;20183;-49
2023/09/22 01:06:09;;;;;;;6.35;4.18;;;16.40;99.90;;;;;;5058465;28;20016;-53
2023/09/22 01:08:34;;;;;;;9.77;5.22;;;16.40;99.90;;;;;;5048392;28;20162;-49
2023/09/22 01:11:01;;;;;;;7.82;4.93;;;16.40;99.90;;;;;;5052588;28;20510;-51
2023/09/22 01:13:27;;;;;;;11.75;5.35;;;16.40;99.90;;;;;;5054346;28;20023;-50
2023/09/22 01:15:53;;;;;;;7.97;5.18;;;16.40;99.90;;;;;;5050688;28;20401;-52
2023/09/22 01:18:19;;;;;;;10.25;5.40;;;16.40;99.90;;;;;;5052284;28;20133;-49
2023/09/22 01:20:45;;;;;;;7.40;4.50;;;16.50;99.90;;;;;;5052300;28;20460;-53
2023/09/22 01:23:12;;;;;;;7.65;5.55;;;16.50;99.90;;;;;;5048805;28;20031;-50
2023/09/22 01:25:39;;;;;;;12.57;5.55;;;16.60;99.90;;;;;;5051147;28;20047;-47
2023/09/22 01:28:06;;;;;;;5.88;4.68;;;16.60;99.90;;;;;;5047173;28;20485;-51
2023/09/22 01:30:33;;;;;;;5.50;4.00;;;16.60;99.90;;;;;;5051899;28;20021;-49
2023/09/22 01:33:04;;;;;;;6.80;4.93;;;16.60;99.90;;;;;;5052782;28;20052;-50
2023/09/22 01:35:33;;;;;;;7.47;4.70;;;16.60;99.90;;;;;;5051122;28;20040;-51
2023/09/22 01:38:15;;;;;;;5.97;4.30;;;16.50;99.90;;;;;;5042872;28;20024;-50
2023/09/22 01:40:42;;;;;;;7.85;5.10;;;16.60;99.90;;;;;;5046411;28;20100;-49
2023/09/22 01:43:07;;;;;;;5.82;4.70;;;16.60;99.90;;;;;;5052680;28;20419;-51
2023/09/22 01:45:33;;;;;;;5.75;4.50;;;16.60;99.90;;;;;;5045155;28;20100;-49
2023/09/22 01:47:58;;;;;;;5.57;4.15;;;16.60;99.90;;;;;;5040349;28;20400;-52
2023/09/22 01:50:24;;;;;;;4.50;3.60;;;16.50;99.90;;;;;;5048154;28;20032;-49
2023/09/22 01:52:49;;;;;;;9.35;4.60;;;16.60;99.90;;;;;;5050738;28;20036;-52
2023/09/22 01:55:15;;;;;;;8.10;4.80;;;16.50;99.90;;;;;;5052688;28;20037;-49
2023/09/22 01:57:41;;;;;;;5.75;4.13;;;16.50;99.90;;;;;;5049405;28;20020;-49
2023/09/22 02:00:07;;;;;;;6.75;4.28;;;16.60;99.90;;;;;;5051803;28;20425;-49
2023/09/22 02:02:34;;;;;;;8.82;4.75;;;16.60;99.90;;;;;;5053138;28;20048;-50
2023/09/22 02:05:00;;;;;;;9.10;5.65;;;16.60;99.90;;;;;;5045794;28;20104;-50
2023/09/22 02:07:26;;;;;;;6.15;4.63;;;16.60;99.90;;;;;;5046071;28;20052;-50
2023/09/22 02:09:52;;;;;;;4.55;3.80;;;16.60;99.90;;;;;;5048911;28;20024;-49
2023/09/22 02:12:17;;;;;;;4.80;3.47;;;16.60;99.90;;;;;;5055695;28;20028;-51
2023/09/22 02:14:42;;;;;;;6.10;4.95;;;16.60;99.90;;;;;;5053265;28;20036;-54
2023/09/22 02:17:08;;;;;;;5.78;4.20;;;16.60;99.90;;;;;;5052522;28;20021;-54
2023/09/22 02:19:35;;;;;;;4.47;4.05;;;16.60;99.90;;;;;;5054398;28;20032;-51
2023/09/22 02:22:00;;;;;;;4.07;2.85;;;16.60;99.90;;;;;;5045795;28;20082;-51
2023/09/22 02:24:26;;;;;;;5.68;4.55;;;16.50;99.90;;;;;;5043591;28;20091;-52
2023/09/22 02:26:51;;;;;;;4.20;3.80;;;16.50;99.90;;;;;;5042355;28;20039;-52
2023/09/22 02:29:17;;;;;;;5.00;3.80;;;16.50;99.90;;;;;;5049202;28;20021;-52
2023/09/22 02:31:42;;;;;;;6.78;4.60;;;16.40;99.90;;;;;;5046608;28;20376;-50
2023/09/22 02:34:08;;;;;;;6.72;5.03;;;16.50;99.90;;;;;;5044522;28;20041;-52
2023/09/22 02:36:33;;;;;;;4.88;4.10;;;16.40;99.90;;;;;;5047689;28;20051;-49
2023/09/22 02:38:59;;;;;;;5.70;4.53;;;16.40;99.90;;;;;;5043955;28;20100;-52
2023/09/22 02:41:24;;;;;;;8.90;4.82;;;16.40;99.90;;;;;;5057176;28;20100;-53
2023/09/22 02:43:50;;;;;;;6.47;4.78;;;16.40;99.90;;;;;;5047709;28;20409;-50
2023/09/22 02:46:16;;;;;;;6.95;4.80;;;16.40;99.90;;;;;;5046352;28;20071;-45
2023/09/22 02:48:41;;;;;;;4.85;4.22;;;16.40;99.90;;;;;;5045419;28;20428;-53
2023/09/22 02:51:08;;;;;;;5.20;3.90;;;16.40;99.90;;;;;;5056954;28;20541;-48
2023/09/22 02:53:34;;;;;;;4.40;3.95;;;16.30;99.90;;;;;;5054406;28;20035;-53
2023/09/22 02:56:05;;;;;;;6.00;4.55;;;16.30;99.90;;;;;;5053396;28;20169;-53
2023/09/22 02:58:31;;;;;;;7.15;4.57;;;16.30;99.90;;;;;;5050540;28;20401;-51
2023/09/22 03:00:56;;;;;;;5.65;4.57;;;16.30;99.90;;;;;;5051176;28;20021;-50
2023/09/22 03:03:22;;;;;;;5.25;4.40;;;16.20;99.90;;;;;;5050792;28;20043;-51
2023/09/22 03:05:48;;;;;;;6.63;4.50;;;16.20;99.90;;;;;;5056482;28;20136;-50
2023/09/22 03:08:13;;;;;;;5.45;3.83;;;16.20;99.90;;;;;;5054776;28;20025;-53
2023/09/22 03:10:39;;;;;;;5.15;4.32;;;16.10;99.90;;;;;;5057713;28;20496;-48
2023/09/22 03:13:04;;;;;;;5.38;4.13;;;16.10;99.90;;;;;;5053933;28;20037;-49
2023/09/22 03:15:30;;;;;;;7.00;4.68;;;16.10;99.90;;;;;;5056526;28;20037;-48
2023/09/22 03:17:56;;;;;;;9.98;4.50;;;16.10;99.90;;;;;;5053882;28;20509;-53
2023/09/22 03:20:22;;;;;;;7.15;4.30;;;16.10;99.90;;;;;;5056661;28;20032;-52
2023/09/22 03:22:47;;;;;;;5.10;4.00;;;16.10;99.90;;;;;;5045633;28;20024;-47
2023/09/22 03:25:14;;;;;;;6.57;4.65;;;16.10;99.90;;;;;;5057438;28;20023;-52
2023/09/22 03:27:40;;;;;;;9.38;5.18;;;16.10;99.90;;;;;;5055317;28;20108;-50
2023/09/22 03:30:07;;;;;;;9.73;5.22;;;16.10;99.90;;;;;;5056282;28;20116;-47
2023/09/22 03:32:35;;;;;;;8.68;5.90;;;16.20;99.90;;;;;;5052546;28;20040;-49
2023/09/22 03:35:05;;;;;;;6.68;5.47;;;16.20;99.90;;;;;;5056069;28;20116;-54
2023/09/22 03:37:32;;;;;;;9.23;6.60;;;16.30;99.90;;;;;;5054322;28;20467;-53
2023/09/22 03:39:57;;;;;;;7.47;6.20;;;16.30;99.90;;;;;;5056319;28;20389;-50
2023/09/22 03:42:24;;;;;;;8.00;5.78;;;16.40;99.90;;;;;;5054950;28;20527;-54
2023/09/22 03:44:50;;;;;;;6.57;5.70;;;16.40;99.90;;;;;;5052033;28;20035;-50
2023/09/22 03:47:16;;;;;;;8.80;5.85;;;16.40;99.90;;;;;;5052038;28;20032;-51
2023/09/22 03:49:41;;;;;;;6.82;5.65;;;16.40;99.90;;;;;;5046533;28;20025;-48
2023/09/22 03:52:07;;;;;;;8.60;5.88;;;16.40;99.90;;;;;;5056496;28;20039;-51
2023/09/22 03:54:33;;;;;;;6.20;5.60;;;16.40;99.90;;;;;;5057551;28;20492;-51
2023/09/22 03:57:00;;;;;;;8.50;5.43;;;16.40;99.90;;;;;;5054072;28;20034;-54
2023/09/22 03:59:26;;;;;;;7.00;4.93;;;16.50;99.90;;;;;;5054916;28;20496;-49
2023/09/22 04:01:51;;;;;;;7.80;5.80;;;16.50;99.90;;;;;;5047104;28;20052;-51
2023/09/22 04:04:17;;;;;;;6.20;5.20;;;16.60;99.90;;;;;;5054098;28;20041;-53
2023/09/22 04:06:42;;;;;;;6.45;4.72;;;16.60;99.90;;;;;;5057634;28;20028;-50
2023/09/22 04:09:08;;;;;;;10.60;5.35;;;16.70;99.90;;;;;;5055711;28;20035;-52
2023/09/22 04:11:34;;;;;;;6.85;4.65;;;16.80;99.90;;;;;;5053394;28;20017;-47
2023/09/22 04:14:01;;;;;;;5.85;4.82;;;16.90;99.90;;;;;;5052258;28;20021;-51
2023/09/22 04:16:26;;;;;;;9.07;4.95;;;17.00;99.90;;;;;;5050580;28;20059;-50
2023/09/22 04:18:54;;;;;;;4.43;3.92;;;17.10;99.90;;;;;;5053094;28;20036;-54
2023/09/22 04:21:21;;;;;;;5.88;4.25;;;17.10;99.90;;;;;;5055886;28;20532;-50
2023/09/22 04:23:51;;;;;;;5.00;3.97;;;17.30;99.90;;;;;;5054095;28;20029;-54
2023/09/22 04:26:16;;;;;;;6.95;3.40;;;17.30;99.90;;;;;;5053292;28;20017;-52
2023/09/22 04:28:43;;;;;;;5.30;3.33;;;17.40;99.90;;;;;;5047653;28;20467;-48
2023/09/22 04:31:12;;;;;;;6.30;3.30;;;17.50;99.90;;;;;;5052818;28;20021;-50
2023/09/22 04:33:38;;;;;;;5.13;3.13;;;17.50;99.90;;;;;;5054910;28;20039;-50
2023/09/22 04:36:03;;;;;;;4.80;3.17;;;17.60;99.90;;;;;;5055590;28;20024;-48
2023/09/22 04:38:29;;;;;;;5.35;3.10;;;17.60;99.90;;;;;;5053066;28;20025;-54
2023/09/22 04:40:58;;;;;;;4.28;2.92;;;17.60;99.90;;;;;;5056697;28;20035;-51
2023/09/22 04:43:23;;;;;;;5.10;2.50;;;17.60;99.90;;;;;;5054190;28;20029;-47
2023/09/22 04:45:49;;;;;;;2.42;2.08;;;17.60;99.90;;;;;;5054954;28;20044;-49
2023/09/22 04:48:16;;;;;;;2.45;1.90;;;17.70;99.90;;;;;;5047178;28;20500;-48
2023/09/22 04:50:42;;;;;;;2.30;1.65;;;17.60;99.90;;;;;;5051375;28;20271;-48
2023/09/22 04:53:08;;;;;;;1.60;1.48;;;17.60;99.90;;;;;;5043937;28;20116;-52
2023/09/22 04:55:37;;;;;;;1.80;1.40;;;17.60;99.90;;;;;;5054347;28;20502;-50
2023/09/22 04:58:03;;;;;;;1.58;1.20;;;17.60;99.90;;;;;;5053169;28;20028;-47
2023/09/22 05:00:33;;;;;;;1.27;1.17;;;17.50;99.90;;;;;;5051848;28;20187;-52
2023/09/22 05:02:59;;;;;;;1.10;1.00;;;17.40;99.90;;;;;;5055522;28;20056;-52
2023/09/22 05:05:25;;;;;;;1.13;0.93;;;17.40;99.90;;;;;;5050365;28;20060;-50
2023/09/22 05:07:51;;;;;;;1.67;1.00;;;17.40;99.90;;;;;;5056350;28;20149;-50
2023/09/22 05:10:16;;;;;;;2.63;0.93;;;17.30;99.90;;;;;;5052173;28;20122;-47
2023/09/22 05:12:42;;;;;;;1.45;1.00;;;17.20;99.90;;;;;;5053151;28;20021;-50
2023/09/22 05:15:08;;;;;;;2.83;0.90;;;17.20;99.90;;;;;;5054535;28;20055;-49
2023/09/22 05:17:34;;;;;;;1.13;0.90;;;17.10;99.90;;;;;;5052404;28;20021;-50
2023/09/22 05:20:00;;;;;;;1.52;0.90;;;17.10;99.90;;;;;;5055612;28;20079;-50
2023/09/22 05:22:26;;;;;;;2.40;1.20;;;17.10;99.90;;;;;;5052528;28;20021;-48
2023/09/22 05:24:51;;;;;;;1.15;1.00;;;17.10;99.90;;;;;;5057787;28;20040;-49
2023/09/22 05:27:17;;;;;;;1.50;1.00;;;17.00;99.90;;;;;;5053749;28;20025;-47
2023/09/22 05:29:43;;;;;;;1.33;1.08;;;17.00;99.90;;;;;;5055041;28;20465;-49
2023/09/22 05:32:09;;;;;;;1.85;1.20;;;17.00;99.90;;;;;;5051731;28;20584;-50
2023/09/22 05:34:35;;;;;;;1.92;1.23;;;17.00;99.90;;;;;;5053681;28;20561;-53
2023/09/22 05:37:01;;;;;;;2.08;1.10;;;16.90;99.90;;;;;;5051774;28;20033;-50
2023/09/22 05:39:26;;;;;;;3.05;1.48;;;16.90;99.90;;;;;;5055797;28;20403;-49
2023/09/22 05:41:52;;;;;;;3.67;1.00;;;16.90;99.90;;;;;;5050691;28;20029;-51
2023/09/22 05:44:18;;;;;;;1.00;0.90;;;16.90;99.90;;;;;;5041742;28;20374;-50
2023/09/22 05:46:44;;;;;;;3.20;1.20;;;16.90;99.90;;;;;;5045306;28;20028;-49
2023/09/22 05:49:14;;;;;;;1.83;1.25;;;16.80;99.90;;;;;;5053776;28;20028;-51
2023/09/22 05:51:40;;;;;;;1.52;1.00;;;16.90;99.90;;;;;;5052640;28;20027;-52
2023/09/22 05:54:06;;;;;;;2.03;1.30;;;16.80;99.90;;;;;;5050561;28;20103;-49
2023/09/22 05:56:31;;;;;;;2.35;1.17;;;16.80;99.90;;;;;;5055420;28;20116;-49
2023/09/22 05:58:57;;;;;;;4.18;1.42;;;16.80;99.90;;;;;;5053551;28;20115;-53
2023/09/22 06:01:22;;;;;;;1.77;1.10;;;16.80;99.90;;;;;;5049281;28;20167;-49
2023/09/22 06:03:48;;;;;;;2.60;1.60;;;16.80;99.90;;;;;;5049810;28;20082;-47
2023/09/22 06:06:15;;;;;;;2.58;1.52;;;16.80;99.90;;;;;;5052118;28;20075;-53
2023/09/22 06:08:43;;;;;;;1.77;1.42;;;16.70;99.90;;;;;;5044352;28;20021;-53
2023/09/22 06:11:09;;;;;;;2.88;1.40;;;16.70;99.90;;;;;;5047171;28;20150;-50
2023/09/22 06:13:36;;;;;;;4.03;1.30;;;16.70;99.90;;;;;;5049430;28;20025;-52
2023/09/22 06:16:02;;;;;;;1.65;1.20;;;16.70;99.90;;;;;;5045951;28;20479;-51
2023/09/22 06:18:28;;;;;;;1.98;1.23;;;16.70;99.90;;;;;;5048048;28;20090;-52
2023/09/22 06:20:55;;;;;;;3.40;1.17;;;16.70;99.90;;;;;;5048541;28;20033;-49
2023/09/22 06:23:21;;;;;;;3.08;1.33;;;16.70;99.90;;;;;;5047513;28;20025;-53
2023/09/22 06:25:47;;;;;;;1.90;1.20;;;16.70;99.90;;;;;;5043358;28;20074;-48
2023/09/22 06:28:15;;;;;;;2.65;1.67;;;16.80;99.90;;;;;;5053062;28;20025;-53
2023/09/22 06:30:41;;;;;;;1.42;1.00;;;16.80;99.90;;;;;;5046833;28;20060;-54
2023/09/22 06:33:07;;;;;;;2.42;1.20;;;16.80;99.90;;;;;;5044102;28;20441;-52
2023/09/22 06:35:33;;;;;;;1.80;1.30;;;16.90;99.90;;;;;;5046796;28;20051;-50
2023/09/22 06:37:59;;;;;;;2.30;1.27;;;16.80;99.90;;;;;;5047898;28;20028;-48
2023/09/22 06:40:24;;;;;;;1.30;1.20;;;16.90;99.90;;;;;;5047487;28;20484;-49
2023/09/22 06:42:50;;;;;;;2.10;1.35;;;16.90;99.90;;;;;;5045348;28;20067;-49
2023/09/22 06:45:16;;;;;;;1.45;1.35;;;16.90;99.90;;;;;;5046499;28;20042;-50
2023/09/22 06:47:42;;;;;;;2.05;1.10;;;16.90;99.90;;;;;;5043775;28;20032;-52
2023/09/22 06:50:08;;;;;;;1.20;1.02;;;16.90;99.90;;;;;;5044699;28;20025;-51
2023/09/22 06:52:37;;;;;;;3.13;1.60;;;17.00;99.90;;;;;;5048112;28;20025;-48
2023/09/22 06:55:07;;;;;;;4.25;1.70;;;17.10;99.90;;;;;;5044920;28;20044;-48
2023/09/22 06:57:33;;;;;;;3.00;1.48;;;17.10;99.90;;;;;;5044871;28;20020;-52
2023/09/22 06:59:58;;;;;;;3.80;1.60;;;17.20;99.90;;;;;;5047195;28;20035;-49
2023/09/22 07:02:25;;;;;;;5.68;1.30;;;17.20;99.90;;;;;;5043492;28;20528;-51
2023/09/22 07:04:50;;;;;;;1.63;1.15;;;17.20;99.90;;;;;;5052566;28;20503;-53
2023/09/22 07:07:18;;;;;;;2.65;1.35;;;17.30;99.90;;;;;;5048348;28;20050;-47
2023/09/22 07:09:44;;;;;;;1.65;0.93;;;17.40;99.90;;;;;;5046174;28;20012;-51
2023/09/22 07:12:09;;;;;;;1.42;1.00;;;17.40;99.90;;;;;;5044449;28;20096;-51
2023/09/22 07:14:35;;;;;;;1.42;0.98;;;17.50;99.90;;;;;;5048837;28;20547;-52
2023/09/22 07:17:02;;;;;;;1.15;0.90;;;17.50;99.90;;;;;;5050039;28;20438;-51
2023/09/22 07:19:28;;;;;;;1.98;1.00;;;17.50;99.90;;;;;;5047176;28;20032;-50
2023/09/22 07:21:54;;;;;;;0.95;0.90;;;17.60;99.90;;;;;;5044977;28;20048;-49
2023/09/22 07:24:19;;;;;;;1.48;0.90;;;17.70;99.90;;;;;;5043997;28;20104;-52
2023/09/22 07:26:45;;;;;;;4.05;0.90;;;17.80;99.90;;;;;;5048815;28;20179;-52
2023/09/22 07:29:10;;;;;;;1.88;1.23;;;18.00;99.90;;;;;;5044591;28;20036;-51
2023/09/22 07:31:37;;;;;;;1.15;1.00;;;18.00;99.90;;;;;;5046854;28;20036;-53
2023/09/22 07:34:03;;;;;;;0.82;0.75;;;18.20;99.90;;;;;;5042827;28;20044;-52
2023/09/22 07:36:28;;;;;;;2.30;1.30;;;18.10;99.90;;;;;;5050099;28;20021;-52
2023/09/22 07:38:54;;;;;;;2.63;1.08;;;18.10;99.90;;;;;;5053808;28;20151;-48
2023/09/22 07:41:19;;;;;;;1.20;1.10;;;18.20;99.90;;;;;;5051284;28;20040;-51
2023/09/22 07:43:45;;;;;;;1.60;1.10;;;18.10;99.90;;;;;;5046540;28;20139;-52
2023/09/22 07:46:11;;;;;;;2.33;1.17;;;18.10;99.90;;;;;;5050870;28;20055;-53
2023/09/22 07:48:37;;;;;;;1.42;1.13;;;18.20;99.90;;;;;;5047081;28;20101;-52
2023/09/22 07:51:03;;;;;;;1.60;1.10;;;18.30;99.90;;;;;;5050761;28;20123;-53
2023/09/22 07:53:30;;;;;;;2.35;1.30;;;18.40;99.90;;;;;;5047820;28;20035;-50
2023/09/22 07:55:59;;;;;;;1.50;1.13;;;18.50;99.90;;;;;;5050486;28;20024;-53
2023/09/22 07:58:25;;;;;;;1.20;1.10;;;18.50;99.90;;;;;;5048658;28;20035;-54
2023/09/22 08:00:52;;;;;;;2.05;1.00;;;18.50;99.90;;;;;;5047671;28;20021;-51
2023/09/22 08:03:21;;;;;;;2.25;1.00;;;18.50;99.90;;;;;;5049961;28;20028;-53
2023/09/22 08:05:50;;;;;;;1.75;0.77;;;18.50;99.90;;;;;;5045162;28;20025;-52
2023/09/22 08:08:17;;;;;;;2.78;0.90;;;18.50;99.90;;;;;;5052017;28;20020;-50
2023/09/22 08:10:43;;;;;;;2.70;1.23;;;18.60;99.90;;;;;;5045905;28;20099;-47
2023/09/22 08:13:08;;;;;;;2.00;1.30;;;18.60;99.90;;;;;;5051271;28;20492;-47
2023/09/22 08:15:35;;;;;;;1.88;1.25;;;18.60;99.90;;;;;;5046287;28;20151;-53
2023/09/22 08:18:02;;;;;;;1.85;0.90;;;18.50;99.90;;;;;;5053995;28;20238;-50
2023/09/22 08:20:28;;;;;;;2.00;1.48;;;18.50;99.90;;;;;;5049886;28;20020;-52
2023/09/22 08:22:54;;;;;;;1.95;1.20;;;18.50;99.90;;;;;;5047404;28;20025;-53
2023/09/22 08:25:20;;;;;;;4.13;1.65;;;18.60;99.90;;;;;;5047763;28;20025;-50
2023/09/22 08:27:47;;;;;;;9.20;1.50;;;18.50;99.90;;;;;;5049851;28;20024;-50
2023/09/22 08:30:14;;;;;;;3.13;1.38;;;18.60;99.90;;;;;;5051085;28;20016;-50
2023/09/22 08:32:42;;;;;;;2.38;1.33;;;18.70;99.90;;;;;;5041248;28;20045;-50
2023/09/22 08:35:09;;;;;;;2.53;1.27;;;18.70;99.90;;;;;;5049597;28;20036;-53
2023/09/22 08:37:37;;;;;;;3.17;1.42;;;18.70;99.90;;;;;;5047800;28;20699;-51
2023/09/22 08:40:08;;;;;;;2.60;1.30;;;18.80;99.90;;;;;;5046760;28;20496;-47
2023/09/22 08:42:34;;;;;;;1.17;0.98;;;18.80;99.90;;;;;;5048608;28;20108;-49
2023/09/22 08:45:00;;;;;;;1.58;1.13;;;18.80;99.90;;;;;;5049294;28;20183;-47
2023/09/22 08:47:26;;;;;;;1.73;0.90;;;18.70;99.90;;;;;;5042807;28;20021;-50
2023/09/22 08:49:52;;;;;;;1.92;1.00;;;18.70;99.90;;;;;;5048718;28;20044;-49
2023/09/22 08:52:20;;;;;;;0.85;0.85;;;18.60;99.90;;;;;;5048546;28;20021;-48
2023/09/22 08:54:46;;;;;;;2.17;0.93;;;18.70;99.90;;;;;;5050785;28;20025;-46
2023/09/22 08:57:14;;;;;;;1.63;1.23;;;18.60;99.90;;;;;;5042925;28;20112;-50
2023/09/22 08:59:41;;;;;;;1.63;1.05;;;18.60;99.90;;;;;;5044985;28;20025;-50
2023/09/22 09:02:09;;;;;;;1.27;0.85;;;18.60;99.90;;;;;;5047948;28;20208;-52
2023/09/22 09:04:40;;;;;;;1.08;0.80;;;18.60;99.90;;;;;;5045715;28;20110;-48
2023/09/22 09:07:06;;;;;;;2.17;1.05;;;18.60;99.90;;;;;;5048959;28;20148;-51
2023/09/22 09:09:47;;;;;;;1.63;0.90;;;18.60;99.90;;;;;;5048932;28;20031;-48
2023/09/22 09:12:13;;;;;;;3.85;1.27;;;18.60;99.90;;;;;;5048555;28;20048;-47
2023/09/22 09:14:40;;;;;;;0.82;0.82;;;18.60;99.90;;;;;;5048380;28;20044;-49
2023/09/22 09:17:18;;;;;;;1.60;0.82;;;18.60;99.90;;;;;;5046733;28;20021;-51
2023/09/22 09:19:56;;;;;;;2.10;1.13;;;18.60;99.90;;;;;;5049124;28;20385;-48
2023/09/22 09:22:30;;;;;;;2.95;1.10;;;18.60;99.90;;;;;;5044425;28;20029;-50
2023/09/22 09:25:01;;;;;;;2.50;1.02;;;18.60;99.90;;;;;;5054021;28;20051;-50
2023/09/22 09:27:27;;;;;;;1.23;1.00;;;18.60;99.90;;;;;;5052774;28;20040;-51
2023/09/22 09:29:57;;;;;;;1.85;1.27;;;18.50;99.90;;;;;;5049924;28;20032;-51
2023/09/22 09:32:27;;;;;;;2.28;1.27;;;18.50;99.90;;;;;;5046154;28;20354;-49
2023/09/22 09:34:53;;;;;;;1.55;1.45;;;18.40;99.90;;;;;;5050499;28;20040;-51
2023/09/22 09:37:19;;;;;;;1.20;1.00;;;18.40;99.90;;;;;;5047247;28;20048;-53
2023/09/22 09:39:50;;;;;;;2.30;1.20;;;18.40;99.90;;;;;;5041283;28;20443;-50
2023/09/22 09:42:18;;;;;;;1.55;1.17;;;18.40;99.90;;;;;;5054614;28;20048;-48
2023/09/22 09:44:57;;;;;;;1.20;1.10;;;18.40;99.90;;;;;;5046835;28;20056;-51
2023/09/22 09:47:30;;;;;;;1.60;1.20;;;18.30;99.90;;;;;;5045805;28;20100;-46
2023/09/22 09:49:56;;;;;;;3.08;0.90;;;18.30;99.90;;;;;;5050698;28;20606;-47
2023/09/22 09:52:51;;;;;;;3.53;1.30;;;18.30;99.90;;;;;;5047222;28;20036;-51
2023/09/22 09:55:20;;;;;;;1.00;0.90;;;18.40;99.90;;;;;;5043152;28;20029;-50
2023/09/22 09:57:46;;;;;;;2.38;1.00;;;18.40;99.90;;;;;;5046207;28;20477;-47
2023/09/22 10:00:14;;;;;;;3.25;1.08;;;18.50;99.90;;;;;;5045090;28;20036;-48
2023/09/22 10:02:43;;;;;;;2.58;1.02;;;18.50;99.90;;;;;;5049404;28;20060;-51
2023/09/22 10:05:11;;;;;;;3.55;1.10;;;18.50;99.90;;;;;;5041987;28;20392;-47
2023/09/22 10:07:37;;;;;;;1.77;0.95;;;18.50;99.90;;;;;;5045268;28;20082;-49
2023/09/22 10:10:05;;;;;;;1.15;0.98;;;18.60;99.90;;;;;;5046748;28;20036;-48
2023/09/22 10:12:31;;;;;;;1.73;1.00;;;18.50;99.90;;;;;;5048545;28;20529;-51
2023/09/22 10:15:01;;;;;;;2.05;0.70;;;18.50;99.90;;;;;;5047612;28;20044;-51
2023/09/22 10:17:27;;;;;;;2.38;1.13;;;18.40;99.90;;;;;;5046473;28;20040;-46
2023/09/22 10:19:53;;;;;;;3.30;1.50;;;18.40;99.90;;;;;;5045011;28;20078;-52
2023/09/22 10:22:19;;;;;;;2.45;0.88;;;18.30;99.90;;;;;;5049919;28;20029;-64
2023/09/22 10:24:44;;;;;;;3.15;1.02;;;18.30;99.90;;;;;;5049191;28;20392;-42
2023/09/22 10:27:13;;;;;;;1.30;1.10;;;18.30;99.90;;;;;;5043821;28;20094;-43
2023/09/22 10:29:42;;;;;;;1.13;0.90;;;18.30;99.90;;;;;;5047501;28;20032;-42
2023/09/22 10:32:17;;;;;;;1.50;0.98;;;18.30;99.90;;;;;;5046378;28;20408;-43
2023/09/22 10:34:56;;;;;;;1.50;1.00;;;18.30;99.90;;;;;;5048994;28;20099;-43
2023/09/22 10:37:32;;;;;;;2.72;1.02;;;18.30;99.90;;;;;;5044950;28;20064;-43
2023/09/22 10:40:11;;;;;;;3.28;1.20;;;18.40;99.90;;;;;;5043910;28;20029;-43
2023/09/22 10:42:42;;;;;;;1.00;0.75;;;18.50;99.90;;;;;;5048601;28;20024;-42
2023/09/22 10:45:08;;;;;;;3.28;1.00;;;18.60;99.90;;;;;;5048382;28;20021;-43
2023/09/22 10:47:44;;;;;;;1.20;0.90;;;18.60;99.90;;;;;;5040766;28;20028;-43
2023/09/22 10:50:18;;;;;;;0.85;0.68;;;18.70;99.90;;;;;;5045911;28;20393;-44
2023/09/22 10:52:52;;;;;;;2.00;0.65;;;18.80;99.90;;;;;;5043420;28;20045;-43
2023/09/22 10:55:30;;;;;;;0.82;0.75;;;18.90;99.90;;;;;;5045280;28;20020;-43
2023/09/22 10:57:57;;;;;;;3.05;1.10;;;19.00;99.90;;;;;;5045458;28;20036;-42
2023/09/22 11:00:24;;;;;;;2.78;0.98;;;18.90;99.90;;;;;;5040908;28;20036;-43
2023/09/22 11:02:50;;;;;;;1.70;1.05;;;18.90;99.90;;;;;;5051715;28;20029;-42
2023/09/22 11:05:16;;;;;;;2.28;1.15;;;18.90;99.90;;;;;;5047334;28;20025;-43
2023/09/22 11:07:42;;;;;;;1.98;1.02;;;18.80;99.90;;;;;;5047115;28;20044;-42
2023/09/22 11:10:10;;;;;;;3.40;1.20;;;18.80;99.90;;;;;;5045865;28;20498;-42
2023/09/22 11:12:35;;;;;;;2.75;1.27;;;18.70;99.90;;;;;;5049213;28;20021;-42
2023/09/22 11:15:02;;;;;;;3.08;1.15;;;18.70;99.90;;;;;;5055636;28;20032;-42
2023/09/22 11:17:38;;;;;;;2.72;1.40;;;18.60;99.90;;;;;;5048473;28;20100;-42
2023/09/22 11:20:12;;;;;;;1.52;1.15;;;18.50;99.90;;;;;;5048308;28;20021;-42
2023/09/22 11:22:40;;;;;;;1.55;1.20;;;18.40;99.90;;;;;;5049250;28;20119;-43
2023/09/22 11:25:07;;;;;;;1.38;1.10;;;18.40;99.90;;;;;;5051038;28;20028;-42
2023/09/22 11:27:50;;;;;;;2.60;1.30;;;18.30;99.90;;;;;;5047013;28;20485;-42
2023/09/22 11:30:19;;;;;;;2.50;1.38;;;18.20;99.90;;;;;;5048090;28;20698;-42
2023/09/22 11:32:46;;;;;;;1.95;1.17;;;18.20;99.90;;;;;;5052221;28;20090;-42
2023/09/22 11:35:37;;;;;;;2.15;1.10;;;18.10;99.90;;;;;;5049493;28;20529;-42
2023/09/22 11:38:24;;;;;;;1.60;1.40;;;18.20;99.90;;;;;;5044588;28;20033;-43
2023/09/22 11:40:50;;;;;;;;;;;18.20;99.90;;;;;;5051220;28;20065;-42
2023/09/22 11:43:16;;;;;;;;;;;18.20;99.90;;;;;;5048047;28;19958;-42
2023/09/22 11:45:41;;;;;;;4.13;1.17;;;18.10;99.90;;;;;;5049387;28;20297;-42
2023/09/22 11:48:07;;;;;;;1.48;0.73;;;18.20;99.90;;;;;;5045406;28;20429;-42
2023/09/22 11:50:33;;;;;;;3.15;1.15;;;18.30;99.90;;;;;;5051170;28;20036;-42
2023/09/22 11:53:17;;;;;;;1.33;1.20;;;18.40;99.90;;;;;;5047158;28;20033;-42
2023/09/22 11:55:47;;;;;;;1.33;1.00;;;18.50;99.90;;;;;;5047024;28;20028;-42
2023/09/22 11:58:14;;;;;;;1.02;0.88;;;18.60;99.90;;;;;;5042923;28;20053;-42
2023/09/22 12:00:40;;;;;;;2.60;1.30;;;18.60;99.90;;;;;;5051739;28;20032;-42
2023/09/22 12:03:05;;;;;;;2.40;1.30;;;18.60;99.90;;;;;;5049539;28;20097;-42
2023/09/22 12:05:31;;;;;;;2.15;1.10;;;18.50;99.90;;;;;;5046830;28;20410;-42
2023/09/22 12:07:56;;;;;;;3.05;1.13;;;18.40;99.90;;;;;;5049940;28;20029;-41
2023/09/22 12:10:22;;;;;;;1.05;0.75;;;18.40;99.90;;;;;;5051475;28;20028;-42
2023/09/22 12:12:48;;;;;;;1.55;1.00;;;18.40;99.90;;;;;;5052620;28;20559;-42
2023/09/22 12:15:13;;;;;;;1.52;1.08;;;18.40;99.90;;;;;;5051363;28;20092;-43
2023/09/22 12:17:39;;;;;;;2.58;1.00;;;18.40;99.90;;;;;;5050348;28;20029;-42
2023/09/22 12:20:06;;;;;;;1.23;1.13;;;18.50;99.90;;;;;;5050442;28;20108;-43
2023/09/22 12:22:31;;;;;;;1.23;1.10;;;18.40;99.90;;;;;;5053988;28;20025;-43
2023/09/22 12:24:57;;;;;;;2.08;0.88;;;18.30;99.90;;;;;;5049361;28;20044;-42
2023/09/22 12:27:22;;;;;;;1.52;1.20;;;18.30;99.90;;;;;;5052263;28;20040;-44
2023/09/22 12:29:48;;;;;;;0.70;0.70;;;18.20;99.90;;;;;;5051658;28;20025;-43
2023/09/22 12:32:13;;;;;;;2.90;1.10;;;18.20;99.90;;;;;;5048779;28;20044;-43
2023/09/22 12:34:39;;;;;;;2.72;1.30;;;18.20;99.90;;;;;;5044338;28;20640;-42
2023/09/22 12:37:05;;;;;;;3.50;1.45;;;18.20;99.90;;;;;;5050238;28;20083;-43
2023/09/22 12:39:30;;;;;;;1.95;1.55;;;18.20;99.90;;;;;;5049803;28;20441;-43
2023/09/22 12:41:56;;;;;;;3.17;1.50;;;18.10;99.90;;;;;;5046093;28;20044;-42
2023/09/22 12:44:22;;;;;;;1.85;1.23;;;18.00;99.90;;;;;;5049067;28;20028;-43
2023/09/22 12:46:47;;;;;;;5.20;1.75;;;18.00;99.90;;;;;;5047410;28;20059;-42